createdAt,value
2017-12-08T00:01:44.882Z,16.10
2017-12-08T00:04:12.958Z,16.07
2017-12-08T00:06:40.926Z,14.90
2017-12-08T00:09:08.957Z,17.50
2017-12-08T00:11:36.921Z,13.83
2017-12-08T00:14:04.813Z,12.00
2017-12-08T00:16:33.198Z,9.20
2017-12-08T00:19:01.135Z,14.97
2017-12-08T00:21:29.140Z,10.87
2017-12-08T00:23:57.081Z,11.67
2017-12-08T00:26:25.064Z,12.20
2017-12-08T00:28:53.008Z,16.10
2017-12-08T00:31:20.938Z,13.20
2017-12-08T00:33:49.019Z,12.43
2017-12-08T00:36:16.964Z,19.57
2017-12-08T00:38:44.894Z,18.80
2017-12-08T00:41:12.935Z,15.73
2017-12-08T00:43:40.961Z,14.50
2017-12-08T00:46:08.983Z,13.60
2017-12-08T00:48:36.904Z,12.40
2017-12-08T00:51:04.884Z,14.97
2017-12-08T00:53:32.854Z,15.53
2017-12-08T00:56:00.906Z,12.93
2017-12-08T00:58:28.838Z,18.53
2017-12-08T01:00:56.809Z,15.07
2017-12-08T01:03:24.752Z,13.13
2017-12-08T01:05:52.718Z,19.23
2017-12-08T01:08:20.668Z,13.20
2017-12-08T01:10:48.687Z,14.37
2017-12-08T01:13:16.647Z,12.60
2017-12-08T01:15:44.602Z,13.53
2017-12-08T01:18:12.563Z,16.73
2017-12-08T01:20:40.492Z,13.20
2017-12-08T01:23:08.408Z,20.33
2017-12-08T01:25:36.351Z,17.30
2017-12-08T01:28:04.372Z,16.53
2017-12-08T01:30:32.306Z,21.57
2017-12-08T01:33:00.219Z,20.27
2017-12-08T01:35:28.287Z,14.03
2017-12-08T01:37:56.202Z,16.47
2017-12-08T01:40:30.390Z,17.53
2017-12-08T01:42:58.297Z,22.10
2017-12-08T01:45:26.239Z,17.00
2017-12-08T01:47:54.196Z,18.53
2017-12-08T01:50:22.139Z,19.87
2017-12-08T01:52:50.135Z,14.57
2017-12-08T01:55:18.082Z,18.60
2017-12-08T01:57:46.021Z,17.60
2017-12-08T02:00:14.083Z,15.90
2017-12-08T02:02:42.060Z,18.00
2017-12-08T02:05:09.992Z,16.80
2017-12-08T02:07:37.975Z,16.10
2017-12-08T02:10:05.885Z,24.03
2017-12-08T02:12:33.868Z,19.13
2017-12-08T02:15:01.864Z,14.57
2017-12-08T02:17:29.812Z,24.63
2017-12-08T02:19:57.832Z,14.80
2017-12-08T02:22:25.752Z,12.80
2017-12-08T02:24:53.763Z,22.03
2017-12-08T02:27:21.676Z,17.00
2017-12-08T02:29:49.660Z,13.57
2017-12-08T02:32:17.603Z,13.83
2017-12-08T02:34:45.552Z,14.80
2017-12-08T02:37:13.471Z,14.40
2017-12-08T02:39:41.524Z,17.00
2017-12-08T02:42:09.454Z,10.13
2017-12-08T02:44:37.407Z,21.30
2017-12-08T02:47:05.328Z,9.27
2017-12-08T02:49:33.324Z,15.20
2017-12-08T02:52:01.317Z,18.17
2017-12-08T02:54:29.235Z,13.67
2017-12-08T02:56:57.166Z,20.90
2017-12-08T02:59:25.164Z,13.97
2017-12-08T03:01:53.134Z,13.13
2017-12-08T03:04:21.134Z,10.63
2017-12-08T03:06:49.062Z,16.50
2017-12-08T03:09:16.982Z,20.43
2017-12-08T03:11:45.036Z,15.63
2017-12-08T03:14:12.985Z,16.60
2017-12-08T03:16:40.925Z,20.07
2017-12-08T03:19:09.709Z,14.43
2017-12-08T03:21:37.668Z,18.43
2017-12-08T03:24:05.592Z,16.43
2017-12-08T03:26:33.622Z,17.40
2017-12-08T03:29:01.557Z,16.33
2017-12-08T03:31:29.477Z,20.97
2017-12-08T03:33:57.418Z,17.20
2017-12-08T03:36:25.346Z,18.20
2017-12-08T03:38:53.270Z,17.10
2017-12-08T03:41:21.218Z,14.47
2017-12-08T03:43:49.166Z,19.50
2017-12-08T03:46:17.088Z,19.90
2017-12-08T03:48:45.059Z,15.33
2017-12-08T03:51:13.097Z,18.47
2017-12-08T03:53:40.997Z,14.67
2017-12-08T03:56:08.908Z,17.17
2017-12-08T03:58:36.853Z,18.77
2017-12-08T04:01:04.801Z,12.90
2017-12-08T04:03:32.753Z,15.37
2017-12-08T04:06:00.715Z,24.87
2017-12-08T04:08:28.779Z,21.03
2017-12-08T04:10:56.698Z,14.30
2017-12-08T04:13:24.666Z,13.27
2017-12-08T04:15:52.582Z,8.07
2017-12-08T04:18:20.553Z,16.17
2017-12-08T04:20:48.470Z,23.33
2017-12-08T04:23:16.394Z,14.20
2017-12-08T04:25:44.334Z,20.63
2017-12-08T04:28:12.268Z,13.97
2017-12-08T04:30:40.263Z,12.07
2017-12-08T04:33:08.221Z,15.73
2017-12-08T04:35:36.182Z,16.30
2017-12-08T04:38:04.137Z,13.87
2017-12-08T04:40:32.075Z,10.90
2017-12-08T04:43:00.006Z,16.17
2017-12-08T04:45:27.953Z,12.67
2017-12-08T04:47:56.058Z,15.43
2017-12-08T04:50:24.324Z,14.60
2017-12-08T04:52:52.345Z,13.07
2017-12-08T04:55:20.300Z,15.50
2017-12-08T04:57:48.263Z,16.60
2017-12-08T05:00:16.480Z,14.83
2017-12-08T05:02:44.476Z,16.27
2017-12-08T05:05:12.481Z,17.03
2017-12-08T05:07:40.414Z,18.87
2017-12-08T05:10:08.364Z,13.23
2017-12-08T05:12:36.314Z,8.70
2017-12-08T05:15:04.242Z,10.70
2017-12-08T05:17:32.186Z,11.73
2017-12-08T05:20:00.098Z,9.50
2017-12-08T05:22:28.199Z,4.53
2017-12-08T05:24:56.162Z,4.17
2017-12-08T05:27:24.100Z,6.10
2017-12-08T05:29:52.088Z,19.33
2017-12-08T05:32:20.027Z,9.13
2017-12-08T05:34:47.972Z,13.10
2017-12-08T05:37:15.889Z,10.03
2017-12-08T05:39:43.835Z,13.43
2017-12-08T05:42:11.766Z,10.00
2017-12-08T05:44:39.693Z,16.60
2017-12-08T05:47:07.643Z,16.20
2017-12-08T05:49:35.608Z,11.63
2017-12-08T05:52:03.539Z,10.60
2017-12-08T05:54:31.484Z,6.23
2017-12-08T05:56:59.435Z,6.87
2017-12-08T05:59:27.390Z,11.20
2017-12-08T06:01:55.353Z,23.03
2017-12-08T06:04:23.330Z,9.17
2017-12-08T06:06:51.244Z,10.10
2017-12-08T06:09:19.219Z,5.13
2017-12-08T06:11:47.147Z,9.40
2017-12-08T06:14:15.112Z,9.63
2017-12-08T06:16:43.038Z,7.23
2017-12-08T06:19:10.990Z,14.00
2017-12-08T06:21:38.916Z,10.27
2017-12-08T06:24:06.886Z,13.67
2017-12-08T06:26:34.815Z,9.80
2017-12-08T06:29:02.780Z,7.13
2017-12-08T06:31:30.733Z,3.83
2017-12-08T06:33:58.806Z,5.10
2017-12-08T06:36:26.797Z,7.07
2017-12-08T06:38:54.714Z,2.13
2017-12-08T06:41:22.655Z,3.70
2017-12-08T06:43:50.578Z,5.50
2017-12-08T06:46:18.958Z,3.97
2017-12-08T06:48:46.872Z,4.13
2017-12-08T06:51:14.854Z,4.20
2017-12-08T06:53:42.777Z,4.00
2017-12-08T06:56:10.710Z,2.83
2017-12-08T06:58:38.656Z,3.67
2017-12-08T07:01:06.576Z,2.83
2017-12-08T07:03:34.550Z,3.67
2017-12-08T07:06:02.538Z,2.07
2017-12-08T07:08:30.496Z,7.43
2017-12-08T07:10:58.419Z,3.23
2017-12-08T07:13:26.402Z,2.47
2017-12-08T07:15:54.347Z,2.10
2017-12-08T07:18:22.393Z,3.00
2017-12-08T07:20:50.377Z,1.37
2017-12-08T07:23:18.293Z,7.60
2017-12-08T07:25:46.322Z,5.43
2017-12-08T07:28:14.371Z,2.70
2017-12-08T07:30:42.414Z,2.90
2017-12-08T07:33:10.407Z,2.13
2017-12-08T07:35:38.447Z,1.80
2017-12-08T07:38:06.434Z,2.40
2017-12-08T07:40:34.407Z,3.70
2017-12-08T07:43:02.400Z,3.47
2017-12-08T07:45:30.490Z,3.13
2017-12-08T07:47:58.491Z,2.80
2017-12-08T07:50:26.487Z,3.43
2017-12-08T07:52:54.484Z,1.70
2017-12-08T07:55:22.426Z,2.20
2017-12-08T07:57:50.472Z,4.07
2017-12-08T08:00:18.421Z,4.20
2017-12-08T08:02:46.399Z,2.43
2017-12-08T08:05:14.541Z,2.80
2017-12-08T08:07:42.529Z,3.50
2017-12-08T08:10:10.717Z,2.50
2017-12-08T08:12:38.727Z,2.80
2017-12-08T08:15:06.665Z,1.03
2017-12-08T08:17:34.607Z,2.60
2017-12-08T08:20:03.487Z,4.90
2017-12-08T08:22:31.616Z,2.57
2017-12-08T08:24:59.596Z,2.23
2017-12-08T08:27:27.658Z,2.30
2017-12-08T08:29:55.607Z,3.90
2017-12-08T08:32:23.534Z,1.87
2017-12-08T08:34:51.597Z,1.70
2017-12-08T08:37:19.555Z,1.87
2017-12-08T08:39:47.634Z,1.40
2017-12-08T08:42:15.614Z,5.63
2017-12-08T08:44:43.808Z,2.00
2017-12-08T08:47:11.994Z,15.00
2017-12-08T08:49:39.979Z,8.47
2017-12-08T08:52:07.939Z,1.13
2017-12-08T08:54:35.874Z,1.10
2017-12-08T08:57:03.862Z,1.77
2017-12-08T08:59:31.841Z,2.40
2017-12-08T09:01:59.846Z,3.37
2017-12-08T09:04:27.813Z,1.10
2017-12-08T09:06:55.787Z,1.77
2017-12-08T09:09:23.844Z,1.20
2017-12-08T09:11:51.810Z,1.20
2017-12-08T09:14:19.836Z,1.10
2017-12-08T09:16:47.847Z,13.40
2017-12-08T09:19:15.804Z,1.67
2017-12-08T09:21:43.774Z,1.23
2017-12-08T09:24:11.699Z,2.03
2017-12-08T09:26:39.647Z,2.07
2017-12-08T09:29:07.592Z,2.60
2017-12-08T09:31:35.588Z,2.60
2017-12-08T09:34:04.380Z,3.50
2017-12-08T09:36:33.019Z,4.90
2017-12-08T09:39:00.972Z,3.90
2017-12-08T09:41:28.896Z,3.10
2017-12-08T09:43:56.850Z,3.93
2017-12-08T09:46:24.782Z,4.23
2017-12-08T09:48:52.704Z,5.20
2017-12-08T09:51:20.736Z,5.53
2017-12-08T09:53:48.650Z,5.63
2017-12-08T09:56:16.684Z,4.67
2017-12-08T09:58:44.607Z,7.40
2017-12-08T10:01:12.542Z,6.83
2017-12-08T10:03:40.509Z,6.23
2017-12-08T10:06:08.540Z,4.50
2017-12-08T10:08:36.467Z,6.20
2017-12-08T10:11:04.414Z,4.77
2017-12-08T10:13:32.378Z,4.80
2017-12-08T10:16:00.290Z,4.17
2017-12-08T10:18:28.250Z,4.30
2017-12-08T10:20:56.171Z,4.50
2017-12-08T10:23:24.136Z,4.40
2017-12-08T10:25:52.082Z,6.27
2017-12-08T10:28:20.028Z,2.30
2017-12-08T10:30:47.993Z,3.13
2017-12-08T10:33:15.980Z,4.50
2017-12-08T10:35:44.036Z,3.57
2017-12-08T10:38:12.075Z,6.90
2017-12-08T10:40:40.004Z,2.50
2017-12-08T10:43:07.949Z,2.50
2017-12-08T10:45:35.922Z,1.30
2017-12-08T10:48:03.961Z,1.30
2017-12-08T10:50:31.994Z,1.10
2017-12-08T10:52:59.891Z,2.60
2017-12-08T10:55:27.852Z,1.73
2017-12-08T10:57:55.812Z,1.60
2017-12-08T11:00:23.739Z,1.20
2017-12-08T11:02:51.726Z,1.20
2017-12-08T11:05:19.671Z,2.63
2017-12-08T11:07:47.653Z,2.70
2017-12-08T11:10:15.611Z,1.40
2017-12-08T11:12:43.586Z,2.33
2017-12-08T11:15:11.555Z,4.97
2017-12-08T11:17:39.502Z,2.40
2017-12-08T11:20:07.492Z,2.20
2017-12-08T11:22:35.424Z,2.17
2017-12-08T11:25:03.376Z,2.40
2017-12-08T11:27:31.377Z,3.60
2017-12-08T11:29:59.330Z,2.53
2017-12-08T11:32:27.331Z,2.10
2017-12-08T11:34:55.322Z,3.90
2017-12-08T11:37:23.377Z,3.77
2017-12-08T11:39:54.216Z,2.93
2017-12-08T11:42:22.296Z,4.03
2017-12-08T11:44:50.390Z,3.10
2017-12-08T11:47:19.751Z,5.27
2017-12-08T11:49:47.726Z,5.30
2017-12-08T11:52:15.662Z,10.30
2017-12-08T11:54:43.611Z,5.40
2017-12-08T11:57:11.597Z,6.70
2017-12-08T11:59:39.558Z,6.10
2017-12-08T12:02:07.553Z,6.90
2017-12-08T12:04:35.506Z,5.60
2017-12-08T12:07:03.455Z,6.53
2017-12-08T12:09:31.395Z,5.10
2017-12-08T12:11:59.310Z,6.10
2017-12-08T12:14:27.282Z,4.70
2017-12-08T12:16:55.255Z,3.50
2017-12-08T12:19:23.344Z,3.00
2017-12-08T12:21:51.362Z,4.27
2017-12-08T12:24:19.322Z,2.77
2017-12-08T12:26:47.282Z,2.20
2017-12-08T12:29:15.303Z,3.53
2017-12-08T12:31:43.315Z,1.93
2017-12-08T12:34:11.244Z,2.00
2017-12-08T12:36:39.194Z,1.30
2017-12-08T12:39:07.222Z,1.30
2017-12-08T12:41:35.146Z,2.30
2017-12-08T12:44:03.099Z,2.70
2017-12-08T12:46:31.044Z,2.60
2017-12-08T12:48:59.072Z,4.20
2017-12-08T12:51:27.000Z,3.27
2017-12-08T12:53:54.967Z,3.50
2017-12-08T12:56:22.908Z,3.90
2017-12-08T12:58:50.908Z,4.70
2017-12-08T13:01:18.819Z,2.60
2017-12-08T13:03:46.763Z,3.83
2017-12-08T13:06:14.846Z,3.00
2017-12-08T13:08:42.824Z,2.67
2017-12-08T13:11:10.858Z,3.20
2017-12-08T13:13:38.948Z,3.43
2017-12-08T13:16:06.950Z,3.80
2017-12-08T13:18:34.886Z,3.50
2017-12-08T13:21:02.827Z,4.20
2017-12-08T13:23:30.768Z,2.60
2017-12-08T13:25:58.709Z,3.20
2017-12-08T13:28:26.716Z,2.90
2017-12-08T13:30:54.731Z,1.87
2017-12-08T13:33:22.690Z,1.53
2017-12-08T13:35:50.584Z,2.10
2017-12-08T13:38:18.520Z,1.33
2017-12-08T13:40:46.432Z,0.80
2017-12-08T13:43:14.405Z,0.90
2017-12-08T13:45:42.389Z,1.00
2017-12-08T13:48:10.400Z,1.20
2017-12-08T13:50:38.392Z,0.90
2017-12-08T13:53:18.175Z,0.93
2017-12-08T13:55:58.563Z,1.27
2017-12-08T13:58:26.646Z,1.17
2017-12-08T14:00:54.577Z,0.70
2017-12-08T14:03:22.547Z,1.13
2017-12-08T14:05:50.693Z,1.00
2017-12-08T14:08:18.858Z,1.63
2017-12-08T14:10:46.820Z,1.23
2017-12-08T14:13:14.751Z,1.20
2017-12-08T14:15:42.736Z,1.30
2017-12-08T14:18:10.657Z,1.27
2017-12-08T14:20:38.845Z,1.30
2017-12-08T14:23:06.787Z,1.70
2017-12-08T14:25:34.777Z,2.10
2017-12-08T14:28:02.751Z,1.60
2017-12-08T14:30:31.103Z,3.53
2017-12-08T14:32:59.135Z,2.30
2017-12-08T14:35:29.611Z,2.20
2017-12-08T14:37:57.640Z,2.10
2017-12-08T14:40:25.605Z,2.33
2017-12-08T14:42:53.598Z,3.07
2017-12-08T14:45:21.653Z,2.90
2017-12-08T14:47:50.371Z,3.50
2017-12-08T14:50:18.301Z,3.23
2017-12-08T14:52:46.228Z,3.80
2017-12-08T14:55:14.196Z,4.43
2017-12-08T14:57:42.123Z,9.63
2017-12-08T15:00:10.155Z,4.40
2017-12-08T15:02:38.113Z,5.70
2017-12-08T15:05:06.030Z,3.90
2017-12-08T15:07:34.569Z,4.37
2017-12-08T15:10:02.573Z,5.00
2017-12-08T15:12:30.587Z,4.50
2017-12-08T15:14:58.510Z,5.33
2017-12-08T15:17:26.549Z,3.80
2017-12-08T15:19:54.539Z,4.17
2017-12-08T15:22:22.466Z,4.47
2017-12-08T15:24:50.394Z,3.43
2017-12-08T15:27:18.329Z,3.47
2017-12-08T15:29:46.262Z,2.80
2017-12-08T15:32:14.249Z,3.77
2017-12-08T15:34:42.169Z,2.60
2017-12-08T15:37:10.160Z,4.07
2017-12-08T15:39:38.113Z,4.27
2017-12-08T15:42:06.069Z,6.03
2017-12-08T15:44:34.008Z,5.70
2017-12-08T15:47:01.972Z,5.83
2017-12-08T15:49:29.932Z,4.63
2017-12-08T15:51:57.874Z,5.10
2017-12-08T15:54:25.840Z,4.70
2017-12-08T15:56:53.776Z,6.20
2017-12-08T15:59:21.691Z,5.13
2017-12-08T16:01:49.665Z,4.57
2017-12-08T16:04:18.304Z,5.63
2017-12-08T16:06:46.268Z,4.87
2017-12-08T16:09:14.226Z,5.40
2017-12-08T16:11:42.121Z,5.40
2017-12-08T16:14:10.048Z,6.20
2017-12-08T16:16:37.971Z,5.77
2017-12-08T16:19:05.918Z,8.43
2017-12-08T16:21:33.999Z,7.00
2017-12-08T16:24:01.950Z,6.07
2017-12-08T16:26:29.866Z,6.40
2017-12-08T16:28:57.804Z,9.80
2017-12-08T16:31:25.772Z,7.43
2017-12-08T16:33:53.675Z,6.60
2017-12-08T16:36:21.617Z,7.10
2017-12-08T16:38:49.630Z,6.20
2017-12-08T16:41:17.544Z,6.73
2017-12-08T16:43:45.507Z,7.93
2017-12-08T16:46:13.406Z,5.93
2017-12-08T16:48:41.362Z,5.67
2017-12-08T16:51:09.261Z,7.50
2017-12-08T16:53:37.223Z,7.40
2017-12-08T16:56:05.685Z,8.83
2017-12-08T16:58:33.676Z,9.10
2017-12-08T17:01:01.661Z,6.70
2017-12-08T17:03:29.632Z,7.77
2017-12-08T17:05:57.633Z,9.87
2017-12-08T17:08:25.554Z,7.90
2017-12-08T17:10:53.501Z,10.90
2017-12-08T17:13:21.530Z,8.90
2017-12-08T17:15:49.566Z,10.90
2017-12-08T17:18:17.473Z,8.93
2017-12-08T17:20:45.412Z,8.23
2017-12-08T17:23:13.326Z,9.03
2017-12-08T17:25:41.289Z,7.77
2017-12-08T17:28:09.251Z,10.70
2017-12-08T17:30:37.835Z,7.80
2017-12-08T17:33:05.763Z,13.23
2017-12-08T17:35:33.682Z,9.57
2017-12-08T17:38:01.724Z,8.60
2017-12-08T17:40:29.629Z,10.13
2017-12-08T17:42:57.632Z,8.80
2017-12-08T17:45:25.566Z,7.63
2017-12-08T17:47:53.492Z,9.83
2017-12-08T17:50:21.425Z,8.60
2017-12-08T17:52:49.353Z,7.43
2017-12-08T17:55:17.499Z,9.13
2017-12-08T17:57:45.390Z,7.80
2017-12-08T18:00:13.440Z,9.80
2017-12-08T18:02:41.376Z,8.60
2017-12-08T18:05:09.308Z,11.27
2017-12-08T18:07:37.264Z,10.17
2017-12-08T18:10:05.195Z,10.37
2017-12-08T18:12:33.128Z,11.90
2017-12-08T18:15:01.108Z,8.37
2017-12-08T18:17:29.090Z,9.03
2017-12-08T18:19:57.045Z,47.43
2017-12-08T18:22:24.978Z,12.03
2017-12-08T18:24:52.896Z,11.03
2017-12-08T18:27:20.844Z,11.60
2017-12-08T18:29:48.787Z,11.30
2017-12-08T18:32:16.795Z,10.10
2017-12-08T18:34:44.739Z,9.70
2017-12-08T18:37:12.709Z,8.10
2017-12-08T18:39:40.724Z,7.37
2017-12-08T18:42:08.697Z,6.50
2017-12-08T18:44:36.612Z,8.73
2017-12-08T18:47:04.556Z,9.53
2017-12-08T18:49:32.488Z,7.17
2017-12-08T18:52:00.659Z,8.13
2017-12-08T18:54:28.583Z,6.70
2017-12-08T18:56:56.488Z,8.23
2017-12-08T18:59:24.465Z,7.13
2017-12-08T19:01:52.392Z,9.90
2017-12-08T19:04:20.404Z,6.27
2017-12-08T19:06:48.283Z,8.33
2017-12-08T19:09:16.215Z,7.60
2017-12-08T19:11:44.141Z,9.00
2017-12-08T19:14:12.100Z,19.97
2017-12-08T19:16:40.997Z,11.20
2017-12-08T19:19:08.934Z,5.60
2017-12-08T19:21:36.846Z,12.37
2017-12-08T19:24:04.816Z,6.50
2017-12-08T19:26:32.742Z,7.10
2017-12-08T19:29:00.686Z,13.10
2017-12-08T19:31:28.608Z,8.33
2017-12-08T19:33:56.565Z,12.13
2017-12-08T19:36:24.518Z,8.27
2017-12-08T19:38:52.458Z,12.60
2017-12-08T19:41:20.395Z,11.17
2017-12-08T19:43:48.336Z,15.90
2017-12-08T19:46:16.279Z,8.13
2017-12-08T19:48:44.238Z,16.83
2017-12-08T19:51:12.163Z,10.97
2017-12-08T19:53:40.090Z,10.00
2017-12-08T19:56:08.092Z,12.40
2017-12-08T19:58:36.113Z,12.80
2017-12-08T20:01:04.070Z,14.33
2017-12-08T20:03:32.173Z,15.90
2017-12-08T20:06:00.121Z,15.73
2017-12-08T20:08:28.044Z,19.17
2017-12-08T20:10:55.971Z,14.30
2017-12-08T20:13:23.921Z,14.93
2017-12-08T20:15:52.692Z,16.93
2017-12-08T20:18:20.661Z,12.90
2017-12-08T20:20:48.578Z,18.43
2017-12-08T20:23:16.698Z,13.53
2017-12-08T20:25:44.638Z,16.47
2017-12-08T20:28:13.279Z,15.93
2017-12-08T20:30:41.791Z,16.10
2017-12-08T20:33:09.713Z,11.73
2017-12-08T20:35:37.854Z,11.97
2017-12-08T20:38:05.820Z,15.77
2017-12-08T20:40:33.787Z,9.63
2017-12-08T20:43:01.729Z,11.77
2017-12-08T20:45:29.646Z,18.80
2017-12-08T20:47:57.585Z,13.60
2017-12-08T20:50:25.505Z,11.40
2017-12-08T20:52:53.453Z,13.57
2017-12-08T20:55:21.407Z,12.67
2017-12-08T20:57:49.373Z,12.93
2017-12-08T21:00:17.301Z,12.00
2017-12-08T21:02:45.218Z,13.40
2017-12-08T21:05:13.192Z,14.43
2017-12-08T21:07:42.689Z,21.00
2017-12-08T21:10:11.377Z,16.67
2017-12-08T21:12:40.448Z,12.33
2017-12-08T21:15:09.764Z,10.63
2017-12-08T21:17:39.295Z,11.70
2017-12-08T21:20:07.254Z,12.93
2017-12-08T21:22:35.341Z,12.53
2017-12-08T21:25:03.422Z,14.27
2017-12-08T21:27:31.682Z,13.27
2017-12-08T21:29:59.735Z,12.43
2017-12-08T21:32:27.654Z,14.27
2017-12-08T21:34:57.246Z,7.10
2017-12-08T21:37:25.178Z,15.33
2017-12-08T21:39:53.113Z,10.60
2017-12-08T21:42:21.120Z,14.30
2017-12-08T21:44:49.111Z,14.63
2017-12-08T21:47:17.058Z,8.93
2017-12-08T21:49:45.583Z,11.40
2017-12-08T21:52:13.526Z,8.63
2017-12-08T21:54:41.447Z,11.70
2017-12-08T21:57:09.362Z,10.97
2017-12-08T21:59:37.396Z,10.57
2017-12-08T22:02:05.311Z,7.87
2017-12-08T22:04:34.554Z,8.30
2017-12-08T22:07:02.748Z,14.77
2017-12-08T22:09:30.687Z,12.13
2017-12-08T22:11:58.682Z,6.00
2017-12-08T22:14:26.638Z,6.13
2017-12-08T22:16:54.586Z,8.60
2017-12-08T22:19:22.536Z,7.20
2017-12-08T22:21:50.496Z,8.43
2017-12-08T22:24:19.211Z,8.67
2017-12-08T22:26:47.180Z,9.60
2017-12-08T22:29:15.150Z,6.60
2017-12-08T22:31:43.150Z,8.30
2017-12-08T22:34:11.118Z,9.90
2017-12-08T22:36:39.078Z,6.40
2017-12-08T22:39:07.280Z,10.10
2017-12-08T22:41:35.186Z,8.33
2017-12-08T22:44:03.127Z,5.63
2017-12-08T22:46:31.145Z,6.20
2017-12-08T22:48:59.097Z,7.23
2017-12-08T22:51:27.006Z,12.13
2017-12-08T22:53:55.063Z,14.60
2017-12-08T22:56:23.033Z,8.30
2017-12-08T22:58:51.046Z,11.00
2017-12-08T23:01:18.974Z,10.33
2017-12-08T23:03:46.914Z,9.30
2017-12-08T23:06:14.858Z,11.20
2017-12-08T23:08:42.794Z,9.33
2017-12-08T23:11:10.744Z,6.20
2017-12-08T23:13:38.663Z,7.47
2017-12-08T23:16:06.641Z,10.30
2017-12-08T23:18:34.629Z,5.97
2017-12-08T23:21:02.674Z,7.17
2017-12-08T23:23:30.643Z,7.07
2017-12-08T23:25:58.609Z,6.83
2017-12-08T23:28:26.526Z,7.17
2017-12-08T23:30:54.538Z,7.33
2017-12-08T23:33:22.463Z,10.73
2017-12-08T23:35:50.380Z,7.05
2017-12-08T23:38:18.331Z,5.67
2017-12-08T23:40:46.296Z,8.20
2017-12-08T23:43:14.235Z,6.90
2017-12-08T23:45:42.172Z,7.90
2017-12-08T23:48:10.868Z,7.80
2017-12-08T23:50:38.856Z,5.70
2017-12-08T23:53:06.810Z,6.83
2017-12-08T23:55:34.740Z,6.53
2017-12-08T23:58:02.629Z,11.27
